createdAt,value
2023-01-19T00:00:48.962Z,17.00
2023-01-19T00:01:49.668Z,16.80
2023-01-19T00:02:50.388Z,17.60
2023-01-19T00:03:51.075Z,16.30
2023-01-19T00:04:51.813Z,16.60
2023-01-19T00:05:52.563Z,18.00
2023-01-19T00:06:53.236Z,16.60
2023-01-19T00:07:53.963Z,16.10
2023-01-19T00:08:54.664Z,22.10
2023-01-19T00:09:55.312Z,17.00
2023-01-19T00:10:56.017Z,17.70
2023-01-19T00:11:56.724Z,18.90
2023-01-19T00:12:58.090Z,17.50
2023-01-19T00:13:58.089Z,16.40
2023-01-19T00:14:58.799Z,20.40
2023-01-19T00:15:59.525Z,17.30
2023-01-19T00:17:00.209Z,18.10
2023-01-19T00:18:00.918Z,17.80
2023-01-19T00:19:01.625Z,19.30
2023-01-19T00:20:02.343Z,20.20
2023-01-19T00:21:03.047Z,19.30
2023-01-19T00:22:03.743Z,17.40
2023-01-19T00:23:04.537Z,17.40
2023-01-19T00:24:05.181Z,19.00
2023-01-19T00:25:05.876Z,16.30
2023-01-19T00:26:06.591Z,19.00
2023-01-19T00:27:07.289Z,17.70
2023-01-19T00:28:08.003Z,17.30
2023-01-19T00:29:08.708Z,16.20
2023-01-19T00:30:09.426Z,19.10
2023-01-19T00:31:10.206Z,21.20
2023-01-19T00:32:10.877Z,16.80
2023-01-19T00:33:11.584Z,23.30
2023-01-19T00:34:12.293Z,18.60
2023-01-19T00:35:13.003Z,16.30
2023-01-19T00:36:13.839Z,16.60
2023-01-19T00:37:14.535Z,17.50
2023-01-19T00:38:15.262Z,15.20
2023-01-19T00:39:15.971Z,17.30
2023-01-19T00:40:16.642Z,16.50
2023-01-19T00:41:17.372Z,16.80
2023-01-19T00:42:18.044Z,16.00
2023-01-19T00:43:18.764Z,15.60
2023-01-19T00:44:19.467Z,21.10
2023-01-19T00:45:20.611Z,15.60
2023-01-19T00:46:20.816Z,15.80
2023-01-19T00:47:21.519Z,16.00
2023-01-19T00:48:22.238Z,16.40
2023-01-19T00:49:22.930Z,15.60
2023-01-19T00:50:23.642Z,16.60
2023-01-19T00:51:24.349Z,17.30
2023-01-19T00:52:25.053Z,18.40
2023-01-19T00:53:25.781Z,15.90
2023-01-19T00:54:27.619Z,17.40
2023-01-19T00:55:27.613Z,16.50
2023-01-19T00:56:28.328Z,16.50
2023-01-19T00:57:29.036Z,16.70
2023-01-19T00:58:29.744Z,17.00
2023-01-19T00:59:30.456Z,17.40
2023-01-19T01:00:31.224Z,18.80
2023-01-19T01:01:44.979Z,19.40
2023-01-19T01:02:33.757Z,15.80
2023-01-19T01:03:33.095Z,19.20
2023-01-19T01:04:33.790Z,19.60
2023-01-19T01:05:34.526Z,16.30
2023-01-19T01:06:35.221Z,21.70
2023-01-19T01:07:35.936Z,18.10
2023-01-19T01:08:36.666Z,15.70
2023-01-19T01:09:37.377Z,16.10
2023-01-19T01:10:38.110Z,15.70
2023-01-19T01:11:38.819Z,15.00
2023-01-19T01:12:39.539Z,18.90
2023-01-19T01:13:40.241Z,14.80
2023-01-19T01:14:40.945Z,15.70
2023-01-19T01:15:41.662Z,15.40
2023-01-19T01:16:42.461Z,15.70
2023-01-19T01:17:43.106Z,16.60
2023-01-19T01:18:43.818Z,19.00
2023-01-19T01:19:44.532Z,18.50
2023-01-19T01:20:45.257Z,15.50
2023-01-19T01:21:46.099Z,16.70
2023-01-19T01:22:46.807Z,16.60
2023-01-19T01:23:47.528Z,15.90
2023-01-19T01:24:48.236Z,16.60
2023-01-19T01:25:48.902Z,17.10
2023-01-19T01:26:49.623Z,15.50
2023-01-19T01:27:50.363Z,17.40
2023-01-19T01:28:51.047Z,19.00
2023-01-19T01:29:51.752Z,15.60
2023-01-19T01:30:52.472Z,15.50
2023-01-19T01:31:53.252Z,15.20
2023-01-19T01:32:53.903Z,15.70
2023-01-19T01:33:54.603Z,15.20
2023-01-19T01:34:55.312Z,15.40
2023-01-19T01:35:56.031Z,15.30
2023-01-19T01:36:56.730Z,18.90
2023-01-19T01:37:57.437Z,17.10
2023-01-19T01:38:58.159Z,19.10
2023-01-19T01:39:58.861Z,14.70
2023-01-19T01:40:59.582Z,15.40
2023-01-19T01:42:00.274Z,22.60
2023-01-19T01:43:01.382Z,18.20
2023-01-19T01:44:01.914Z,20.30
2023-01-19T01:45:02.570Z,14.60
2023-01-19T01:46:03.696Z,19.30
2023-01-19T01:47:03.919Z,15.00
2023-01-19T01:48:04.627Z,15.30
2023-01-19T01:49:05.335Z,15.00
2023-01-19T01:50:06.040Z,13.60
2023-01-19T01:51:07.109Z,13.60
2023-01-19T01:52:07.322Z,14.40
2023-01-19T01:53:08.373Z,14.90
2023-01-19T01:54:08.662Z,13.70
2023-01-19T01:55:09.353Z,13.80
2023-01-19T01:56:10.067Z,14.80
2023-01-19T01:57:10.757Z,13.70
2023-01-19T01:58:11.460Z,14.50
2023-01-19T01:59:12.169Z,13.80
2023-01-19T02:00:12.876Z,13.90
2023-01-19T02:01:13.691Z,14.60
2023-01-19T02:02:14.352Z,17.50
2023-01-19T02:03:15.207Z,14.30
2023-01-19T02:04:15.897Z,15.00
2023-01-19T02:05:16.607Z,14.90
2023-01-19T02:06:17.632Z,14.50
2023-01-19T02:07:17.831Z,15.30
2023-01-19T02:08:18.559Z,15.20
2023-01-19T02:09:19.288Z,15.00
2023-01-19T02:10:20.005Z,13.90
2023-01-19T02:11:20.669Z,15.00
2023-01-19T02:12:21.382Z,17.30
2023-01-19T02:13:22.086Z,15.30
2023-01-19T02:14:22.794Z,14.20
2023-01-19T02:15:23.495Z,14.90
2023-01-19T02:16:24.236Z,13.30
2023-01-19T02:17:24.923Z,16.90
2023-01-19T02:18:25.625Z,14.40
2023-01-19T02:19:26.334Z,17.10
2023-01-19T02:20:27.041Z,15.10
2023-01-19T02:21:28.122Z,15.00
2023-01-19T02:22:28.323Z,14.60
2023-01-19T02:23:29.029Z,18.10
2023-01-19T02:24:29.752Z,17.00
2023-01-19T02:25:30.463Z,16.30
2023-01-19T02:26:31.127Z,15.90
2023-01-19T02:27:31.837Z,19.80
2023-01-19T02:28:32.541Z,18.60
2023-01-19T02:29:33.248Z,18.40
2023-01-19T02:30:34.035Z,14.90
2023-01-19T02:31:35.109Z,13.90
2023-01-19T02:32:35.317Z,14.00
2023-01-19T02:33:36.067Z,16.60
2023-01-19T02:34:36.763Z,15.70
2023-01-19T02:35:37.568Z,18.10
2023-01-19T02:36:38.629Z,22.50
2023-01-19T02:37:38.818Z,14.80
2023-01-19T02:38:39.532Z,14.70
2023-01-19T02:39:40.257Z,21.90
2023-01-19T02:40:40.981Z,22.00
2023-01-19T02:41:42.110Z,17.00
2023-01-19T02:42:42.312Z,14.10
2023-01-19T02:43:43.021Z,14.00
2023-01-19T02:44:43.727Z,14.10
2023-01-19T02:45:44.476Z,14.80
2023-01-19T02:46:45.611Z,14.00
2023-01-19T02:47:45.861Z,15.40
2023-01-19T02:48:46.524Z,19.40
2023-01-19T02:49:47.232Z,14.70
2023-01-19T02:50:47.937Z,19.50
2023-01-19T02:51:49.115Z,19.40
2023-01-19T02:52:49.316Z,14.00
2023-01-19T02:53:50.050Z,15.10
2023-01-19T02:54:50.765Z,14.20
2023-01-19T02:55:51.468Z,16.90
2023-01-19T02:56:52.613Z,14.00
2023-01-19T02:57:52.826Z,17.10
2023-01-19T02:58:53.528Z,16.50
2023-01-19T02:59:54.238Z,14.60
2023-01-19T03:00:54.968Z,13.20
2023-01-19T03:01:56.148Z,13.80
2023-01-19T03:02:56.361Z,13.30
2023-01-19T03:03:57.019Z,13.40
2023-01-19T03:04:57.730Z,13.10
2023-01-19T03:05:58.435Z,13.20
2023-01-19T03:06:59.626Z,16.00
2023-01-19T03:07:59.841Z,13.60
2023-01-19T03:09:00.528Z,12.90
2023-01-19T03:10:01.248Z,13.80
2023-01-19T03:11:01.951Z,17.80
2023-01-19T03:12:02.607Z,13.50
2023-01-19T03:13:03.915Z,14.00
2023-01-19T03:14:04.194Z,14.20
2023-01-19T03:15:04.888Z,16.20
2023-01-19T03:16:05.665Z,13.80
2023-01-19T03:17:06.327Z,14.20
2023-01-19T03:18:07.039Z,13.90
2023-01-19T03:19:07.737Z,15.60
2023-01-19T03:20:08.451Z,18.50
2023-01-19T03:21:09.148Z,17.60
2023-01-19T03:22:09.864Z,13.20
2023-01-19T03:23:10.570Z,14.00
2023-01-19T03:24:11.275Z,16.00
2023-01-19T03:25:12.052Z,13.90
2023-01-19T03:26:12.717Z,14.10
2023-01-19T03:27:13.380Z,13.50
2023-01-19T03:28:14.105Z,13.30
2023-01-19T03:29:14.805Z,15.40
2023-01-19T03:30:15.516Z,14.80
2023-01-19T03:31:16.263Z,15.90
2023-01-19T03:32:16.927Z,12.80
2023-01-19T03:33:17.645Z,14.50
2023-01-19T03:34:18.338Z,13.10
2023-01-19T03:35:19.050Z,13.90
2023-01-19T03:36:19.756Z,14.90
2023-01-19T03:37:20.475Z,14.60
2023-01-19T03:38:21.178Z,18.70
2023-01-19T03:39:21.880Z,13.00
2023-01-19T03:40:22.643Z,19.30
2023-01-19T03:41:23.331Z,20.10
2023-01-19T03:42:24.110Z,14.20
2023-01-19T03:43:24.824Z,13.40
2023-01-19T03:44:25.527Z,17.50
2023-01-19T03:45:26.240Z,13.40
2023-01-19T03:46:27.034Z,13.60
2023-01-19T03:47:28.108Z,12.90
2023-01-19T03:48:28.323Z,16.50
2023-01-19T03:49:29.027Z,15.70
2023-01-19T03:50:29.747Z,14.30
2023-01-19T03:51:30.452Z,16.80
2023-01-19T03:52:31.166Z,12.70
2023-01-19T03:53:31.868Z,16.00
2023-01-19T03:54:32.574Z,12.30
2023-01-19T03:55:33.298Z,13.70
2023-01-19T03:56:34.007Z,11.50
2023-01-19T03:57:34.711Z,11.60
2023-01-19T03:58:35.419Z,13.30
2023-01-19T03:59:36.192Z,11.40
2023-01-19T04:00:36.903Z,15.10
2023-01-19T04:01:37.683Z,16.40
2023-01-19T04:02:38.424Z,17.50
2023-01-19T04:03:39.095Z,13.40
2023-01-19T04:04:39.801Z,11.90
2023-01-19T04:05:40.612Z,11.60
2023-01-19T04:06:41.324Z,12.00
2023-01-19T04:07:42.048Z,15.20
2023-01-19T04:08:42.887Z,11.30
2023-01-19T04:09:43.592Z,17.10
2023-01-19T04:10:44.338Z,13.80
2023-01-19T04:11:45.039Z,11.30
2023-01-19T04:12:45.721Z,11.40
2023-01-19T04:13:46.414Z,11.60
2023-01-19T04:14:47.118Z,11.60
2023-01-19T04:15:47.856Z,12.00
2023-01-19T04:16:48.538Z,11.90
2023-01-19T04:17:49.609Z,12.20
2023-01-19T04:18:49.815Z,12.50
2023-01-19T04:19:50.526Z,15.80
2023-01-19T04:20:51.228Z,16.00
2023-01-19T04:21:52.045Z,13.00
2023-01-19T04:22:52.756Z,15.00
2023-01-19T04:23:53.465Z,15.70
2023-01-19T04:24:54.160Z,13.50
2023-01-19T04:25:54.891Z,12.90
2023-01-19T04:26:55.602Z,15.60
2023-01-19T04:27:56.273Z,16.00
2023-01-19T04:28:56.979Z,14.70
2023-01-19T04:29:57.687Z,17.40
2023-01-19T04:30:58.425Z,12.30
2023-01-19T04:31:59.104Z,12.20
2023-01-19T04:33:00.281Z,12.50
2023-01-19T04:34:00.632Z,14.40
2023-01-19T04:35:01.333Z,12.60
2023-01-19T04:36:02.067Z,13.40
2023-01-19T04:37:02.775Z,13.40
2023-01-19T04:38:03.485Z,12.90
2023-01-19T04:39:04.189Z,16.50
2023-01-19T04:40:04.895Z,14.70
2023-01-19T04:41:05.618Z,18.40
2023-01-19T04:42:06.322Z,14.30
2023-01-19T04:43:07.001Z,14.40
2023-01-19T04:44:07.705Z,14.40
2023-01-19T04:45:08.401Z,16.20
2023-01-19T04:46:09.154Z,14.30
2023-01-19T04:47:09.814Z,16.20
2023-01-19T04:48:10.529Z,25.10
2023-01-19T04:49:11.233Z,33.60
2023-01-19T04:50:11.977Z,41.10
2023-01-19T04:51:12.665Z,22.30
2023-01-19T04:52:13.374Z,41.00
2023-01-19T04:53:14.113Z,29.20
2023-01-19T04:54:14.842Z,52.10
2023-01-19T04:55:15.526Z,93.60
2023-01-19T04:56:16.259Z,65.80
2023-01-19T04:57:16.955Z,115.70
2023-01-19T04:58:18.120Z,92.30
2023-01-19T04:59:18.326Z,84.70
2023-01-19T05:00:19.035Z,83.90
2023-01-19T05:01:19.866Z,108.40
2023-01-19T05:02:20.507Z,125.50
2023-01-19T05:03:21.300Z,135.10
2023-01-19T05:04:22.127Z,159.60
2023-01-19T05:05:22.833Z,152.10
2023-01-19T05:06:23.540Z,164.00
2023-01-19T05:07:24.247Z,172.70
2023-01-19T05:08:24.978Z,173.60
2023-01-19T05:09:25.683Z,183.10
2023-01-19T05:10:26.393Z,195.60
2023-01-19T05:11:27.125Z,197.20
2023-01-19T05:12:27.827Z,191.60
2023-01-19T05:13:28.514Z,211.70
2023-01-19T05:14:29.220Z,202.30
2023-01-19T05:15:29.926Z,197.90
2023-01-19T05:16:30.650Z,218.00
2023-01-19T05:17:31.345Z,232.20
2023-01-19T05:18:32.057Z,233.80
2023-01-19T05:19:32.765Z,253.20
2023-01-19T05:20:33.475Z,241.50
2023-01-19T05:21:34.176Z,236.40
2023-01-19T05:22:34.892Z,260.30
2023-01-19T05:23:35.602Z,268.40
2023-01-19T05:24:36.306Z,238.80
2023-01-19T05:25:37.014Z,202.60
2023-01-19T05:26:37.744Z,258.20
2023-01-19T05:27:38.453Z,254.10
2023-01-19T05:28:39.617Z,287.30
2023-01-19T05:29:39.821Z,287.10
2023-01-19T05:30:40.578Z,298.60
2023-01-19T05:31:41.281Z,297.70
2023-01-19T05:32:41.970Z,315.10
2023-01-19T05:33:43.110Z,338.20
2023-01-19T05:34:43.315Z,327.80
2023-01-19T05:35:44.033Z,323.20
2023-01-19T05:36:44.734Z,309.10
2023-01-19T05:37:45.435Z,350.00
2023-01-19T05:38:46.149Z,305.70
2023-01-19T05:39:46.853Z,327.50
2023-01-19T05:40:47.558Z,311.50
2023-01-19T05:41:48.296Z,314.90
2023-01-19T05:42:48.987Z,279.00
2023-01-19T05:43:49.670Z,303.90
2023-01-19T05:44:50.374Z,264.40
2023-01-19T05:45:51.088Z,310.90
2023-01-19T05:46:51.897Z,263.00
2023-01-19T05:47:52.566Z,271.70
2023-01-19T05:48:53.277Z,290.20
2023-01-19T05:49:53.989Z,271.30
2023-01-19T05:50:54.696Z,273.30
2023-01-19T05:51:55.394Z,274.30
2023-01-19T05:52:56.099Z,278.30
2023-01-19T05:53:57.109Z,272.40
2023-01-19T05:54:57.319Z,256.40
2023-01-19T05:55:58.034Z,267.90
2023-01-19T05:56:58.757Z,270.70
2023-01-19T05:57:59.458Z,276.30
2023-01-19T05:59:00.175Z,278.00
2023-01-19T06:00:01.107Z,285.90
2023-01-19T06:01:01.864Z,262.20
2023-01-19T06:02:02.551Z,283.00
2023-01-19T06:03:03.873Z,289.20
2023-01-19T06:04:03.989Z,258.40
2023-01-19T06:05:04.685Z,296.90
2023-01-19T06:06:05.396Z,285.70
2023-01-19T06:07:06.102Z,278.60
2023-01-19T06:08:06.814Z,304.50
2023-01-19T06:09:07.532Z,321.40
2023-01-19T06:10:08.236Z,322.90
2023-01-19T06:11:08.945Z,317.70
2023-01-19T06:12:09.670Z,304.40
2023-01-19T06:13:10.367Z,338.50
2023-01-19T06:14:11.035Z,321.60
2023-01-19T06:15:11.749Z,323.40
2023-01-19T06:16:12.528Z,336.50
2023-01-19T06:17:13.213Z,329.50
2023-01-19T06:18:13.943Z,323.40
2023-01-19T06:19:15.113Z,293.70
2023-01-19T06:20:15.317Z,331.40
2023-01-19T06:21:16.017Z,311.40
2023-01-19T06:22:16.735Z,301.10
2023-01-19T06:23:17.441Z,321.10
2023-01-19T06:24:18.610Z,282.60
2023-01-19T06:25:18.828Z,289.50
2023-01-19T06:26:19.525Z,296.30
2023-01-19T06:27:20.247Z,256.20
2023-01-19T06:28:20.947Z,257.60
2023-01-19T06:29:21.616Z,327.00
2023-01-19T06:30:22.327Z,253.10
2023-01-19T06:31:23.062Z,250.60
2023-01-19T06:32:23.733Z,270.50
2023-01-19T06:33:24.440Z,234.40
2023-01-19T06:34:25.152Z,314.40
2023-01-19T06:35:25.859Z,202.60
2023-01-19T06:36:26.605Z,202.40
2023-01-19T06:37:27.291Z,243.30
2023-01-19T06:38:27.997Z,276.10
2023-01-19T06:39:28.715Z,261.00
2023-01-19T06:40:29.421Z,309.70
2023-01-19T06:41:30.137Z,264.40
2023-01-19T06:42:30.857Z,277.30
2023-01-19T06:43:31.552Z,288.40
2023-01-19T06:44:32.253Z,251.00
2023-01-19T06:45:33.014Z,267.60
2023-01-19T06:46:33.670Z,235.00
2023-01-19T06:47:34.387Z,260.70
2023-01-19T06:48:35.076Z,238.20
2023-01-19T06:49:35.796Z,213.60
2023-01-19T06:50:36.507Z,218.50
2023-01-19T06:51:37.215Z,222.70
2023-01-19T06:52:37.927Z,238.60
2023-01-19T06:53:38.627Z,227.90
2023-01-19T06:54:39.616Z,217.20
2023-01-19T06:55:40.319Z,227.50
2023-01-19T06:56:41.067Z,200.20
2023-01-19T06:57:41.613Z,237.80
2023-01-19T06:58:42.320Z,257.70
2023-01-19T06:59:43.113Z,256.20
2023-01-19T07:00:44.025Z,206.30
2023-01-19T07:01:44.892Z,211.80
2023-01-19T07:02:45.665Z,226.20
2023-01-19T07:03:47.007Z,246.90
2023-01-19T07:04:47.613Z,243.20
2023-01-19T07:05:47.819Z,243.50
2023-01-19T07:06:48.527Z,276.20
2023-01-19T07:07:49.230Z,263.70
2023-01-19T07:08:49.944Z,212.00
2023-01-19T07:09:53.685Z,270.10
2023-01-19T07:11:25.948Z,268.10
2023-01-19T07:11:52.887Z,179.70
2023-01-19T07:12:52.616Z,243.20
2023-01-19T07:13:53.326Z,259.30
2023-01-19T07:14:54.010Z,163.50
2023-01-19T07:15:54.713Z,239.40
2023-01-19T07:16:55.421Z,152.80
2023-01-19T07:17:56.128Z,204.00
2023-01-19T07:18:56.837Z,145.80
2023-01-19T07:19:57.610Z,179.10
2023-01-19T07:20:58.318Z,235.10
2023-01-19T07:21:59.032Z,192.50
2023-01-19T07:23:00.131Z,203.20
2023-01-19T07:24:00.436Z,200.80
2023-01-19T07:25:01.698Z,232.10
2023-01-19T07:26:01.909Z,163.10
2023-01-19T07:27:02.621Z,176.10
2023-01-19T07:28:03.356Z,172.10
2023-01-19T07:29:04.069Z,199.10
2023-01-19T07:30:05.117Z,228.30
2023-01-19T07:31:05.469Z,199.60
2023-01-19T07:32:06.202Z,202.40
2023-01-19T07:33:06.927Z,177.80
2023-01-19T07:34:07.651Z,199.20
2023-01-19T07:35:08.618Z,163.80
2023-01-19T07:36:09.333Z,163.30
2023-01-19T07:37:10.050Z,208.00
2023-01-19T07:38:10.734Z,233.80
2023-01-19T07:39:11.437Z,204.40
2023-01-19T07:40:12.151Z,175.90
2023-01-19T07:41:12.980Z,163.80
2023-01-19T07:42:13.661Z,198.90
2023-01-19T07:43:14.385Z,210.80
2023-01-19T07:44:15.077Z,176.60
2023-01-19T07:45:15.762Z,161.40
2023-01-19T07:46:16.544Z,179.00
2023-01-19T07:47:17.226Z,185.10
2023-01-19T07:48:17.922Z,199.60
2023-01-19T07:49:18.641Z,195.90
2023-01-19T07:50:19.347Z,213.00
2023-01-19T07:51:20.054Z,206.60
2023-01-19T07:52:20.760Z,186.30
2023-01-19T07:53:21.471Z,172.50
2023-01-19T07:54:22.192Z,216.50
2023-01-19T07:55:22.893Z,204.40
2023-01-19T07:56:23.600Z,204.00
2023-01-19T07:57:24.322Z,222.70
2023-01-19T07:58:25.054Z,239.60
2023-01-19T07:59:25.743Z,235.70
2023-01-19T08:00:26.465Z,221.20
2023-01-19T08:01:27.255Z,202.60
2023-01-19T08:02:27.949Z,214.20
2023-01-19T08:03:28.650Z,202.40
2023-01-19T08:04:29.435Z,252.60
2023-01-19T08:05:30.385Z,233.30
2023-01-19T08:06:31.056Z,275.00
2023-01-19T08:07:31.773Z,238.70
2023-01-19T08:08:32.477Z,279.30
2023-01-19T08:09:33.196Z,232.20
2023-01-19T08:10:33.934Z,271.70
2023-01-19T08:11:34.638Z,290.30
2023-01-19T08:12:35.364Z,282.00
2023-01-19T08:13:36.080Z,285.80
2023-01-19T08:14:36.804Z,271.70
2023-01-19T08:15:37.561Z,261.40
2023-01-19T08:16:38.217Z,331.40
2023-01-19T08:17:38.941Z,297.50
2023-01-19T08:18:39.651Z,334.30
2023-01-19T08:19:41.587Z,322.30
2023-01-19T08:20:41.636Z,334.80
2023-01-19T08:21:41.829Z,304.20
2023-01-19T08:22:42.539Z,316.50
2023-01-19T08:23:43.280Z,330.60
2023-01-19T08:24:43.959Z,327.10
2023-01-19T08:25:45.156Z,348.20
2023-01-19T08:26:45.323Z,352.30
2023-01-19T08:27:46.030Z,332.30
2023-01-19T08:28:46.768Z,369.50
2023-01-19T08:29:47.506Z,319.10
2023-01-19T08:30:48.689Z,371.80
2023-01-19T08:31:48.976Z,384.70
2023-01-19T08:32:49.673Z,336.30
2023-01-19T08:33:50.372Z,361.20
2023-01-19T08:34:51.085Z,338.00
2023-01-19T08:35:51.815Z,355.80
2023-01-19T08:36:52.517Z,379.30
2023-01-19T08:37:53.228Z,353.90
2023-01-19T08:38:53.945Z,368.60
2023-01-19T08:39:54.638Z,348.20
2023-01-19T08:40:55.373Z,345.30
2023-01-19T08:41:56.062Z,333.40
2023-01-19T08:42:56.767Z,350.70
2023-01-19T08:43:57.509Z,348.60
2023-01-19T08:44:58.720Z,342.20
2023-01-19T08:45:59.165Z,332.20
2023-01-19T08:46:59.833Z,354.60
2023-01-19T08:48:00.539Z,348.70
2023-01-19T08:49:01.249Z,330.70
2023-01-19T08:50:01.944Z,348.60
2023-01-19T08:51:02.656Z,299.60
2023-01-19T08:52:03.357Z,346.30
2023-01-19T08:53:04.187Z,315.30
2023-01-19T08:54:04.840Z,341.50
2023-01-19T08:55:05.546Z,345.40
2023-01-19T08:56:06.261Z,341.30
2023-01-19T08:57:06.963Z,334.00
2023-01-19T08:58:07.669Z,310.30
2023-01-19T08:59:10.820Z,332.30
2023-01-19T09:00:09.100Z,329.90
2023-01-19T09:01:10.206Z,312.80
2023-01-19T09:02:10.486Z,364.70
2023-01-19T09:03:11.256Z,321.80
2023-01-19T09:04:11.915Z,321.90
2023-01-19T09:05:12.625Z,317.90
2023-01-19T09:06:13.613Z,337.40
2023-01-19T09:07:14.330Z,300.10
2023-01-19T09:08:15.035Z,320.00
2023-01-19T09:09:15.783Z,318.40
2023-01-19T09:10:16.478Z,307.00
2023-01-19T09:11:17.215Z,304.60
2023-01-19T09:12:17.923Z,300.00
2023-01-19T09:13:18.629Z,344.60
2023-01-19T09:14:19.362Z,319.90
2023-01-19T09:15:20.063Z,301.80
2023-01-19T09:16:21.182Z,323.20
2023-01-19T09:17:21.327Z,338.60
2023-01-19T09:18:22.039Z,348.40
2023-01-19T09:19:22.761Z,309.80
2023-01-19T09:20:23.479Z,364.80
2023-01-19T09:21:24.626Z,331.60
2023-01-19T09:22:24.856Z,307.20
2023-01-19T09:23:25.536Z,345.40
2023-01-19T09:24:26.248Z,348.00
2023-01-19T09:25:26.951Z,345.60
2023-01-19T09:26:28.137Z,314.70
2023-01-19T09:27:28.456Z,352.30
2023-01-19T09:28:29.093Z,344.10
2023-01-19T09:29:29.819Z,329.30
2023-01-19T09:30:30.563Z,343.90
2023-01-19T09:31:31.380Z,333.60
2023-01-19T09:32:32.277Z,360.30
2023-01-19T09:33:32.952Z,368.80
2023-01-19T09:34:33.708Z,359.80
2023-01-19T09:35:34.419Z,390.10
2023-01-19T09:36:35.630Z,346.20
2023-01-19T09:37:35.824Z,367.60
2023-01-19T09:38:36.536Z,362.00
2023-01-19T09:39:37.299Z,357.60
2023-01-19T09:40:37.965Z,368.60
2023-01-19T09:41:39.124Z,357.40
2023-01-19T09:42:39.332Z,358.30
2023-01-19T09:43:40.053Z,344.70
2023-01-19T09:44:40.762Z,361.00
2023-01-19T09:45:41.516Z,359.70
2023-01-19T09:46:42.799Z,367.70
2023-01-19T09:47:42.975Z,343.00
2023-01-19T09:48:43.685Z,347.00
2023-01-19T09:49:44.492Z,338.60
2023-01-19T09:50:45.174Z,353.20
2023-01-19T09:51:46.130Z,369.80
2023-01-19T09:52:46.833Z,382.40
2023-01-19T09:53:47.532Z,373.50
2023-01-19T09:54:48.249Z,372.80
2023-01-19T09:55:49.046Z,376.40
2023-01-19T09:56:52.725Z,368.00
2023-01-19T09:57:50.596Z,378.10
2023-01-19T09:58:51.315Z,370.80
2023-01-19T09:59:52.053Z,361.00
2023-01-19T10:00:52.973Z,384.30
2023-01-19T10:01:54.143Z,377.60
2023-01-19T10:02:54.414Z,377.80
2023-01-19T10:03:55.105Z,373.60
2023-01-19T10:04:55.821Z,370.10
2023-01-19T10:05:56.611Z,393.30
2023-01-19T10:06:57.298Z,368.40
2023-01-19T10:07:58.315Z,367.40
2023-01-19T10:08:58.721Z,363.10
2023-01-19T10:09:59.424Z,352.20
2023-01-19T10:11:00.136Z,346.20
2023-01-19T10:12:00.911Z,345.60
2023-01-19T10:13:02.048Z,337.40
2023-01-19T10:14:02.340Z,325.70
2023-01-19T10:15:03.065Z,330.40
2023-01-19T10:16:03.919Z,324.10
2023-01-19T10:17:04.613Z,322.60
2023-01-19T10:18:05.334Z,352.00
2023-01-19T10:19:06.028Z,353.40
2023-01-19T10:20:06.783Z,317.20
2023-01-19T10:21:07.512Z,338.60
2023-01-19T10:22:08.634Z,340.30
2023-01-19T10:23:08.866Z,343.00
2023-01-19T10:24:09.554Z,330.00
2023-01-19T10:25:10.243Z,334.10
2023-01-19T10:26:11.101Z,334.40
2023-01-19T10:27:12.140Z,339.90
2023-01-19T10:28:12.340Z,344.80
2023-01-19T10:29:13.042Z,336.30
2023-01-19T10:30:13.830Z,344.00
2023-01-19T10:31:14.755Z,351.60
2023-01-19T10:32:15.523Z,342.10
2023-01-19T10:33:16.202Z,334.40
2023-01-19T10:34:19.816Z,343.20
2023-01-19T10:35:17.826Z,327.70
2023-01-19T10:36:18.498Z,356.60
2023-01-19T10:37:19.618Z,348.80
2023-01-19T10:38:21.653Z,343.60
2023-01-19T10:39:20.571Z,335.00
2023-01-19T10:40:21.346Z,330.50
2023-01-19T10:41:22.030Z,319.70
2023-01-19T10:42:23.113Z,348.00
2023-01-19T10:43:23.337Z,334.00
2023-01-19T10:44:24.164Z,339.40
2023-01-19T10:45:25.094Z,331.00
2023-01-19T10:46:25.857Z,346.60
2023-01-19T10:47:26.698Z,352.00
2023-01-19T10:48:27.338Z,356.70
2023-01-19T10:49:28.111Z,337.30
2023-01-19T10:50:28.785Z,352.50
2023-01-19T10:51:29.605Z,314.70
2023-01-19T10:52:30.363Z,340.90
2023-01-19T10:53:31.009Z,362.20
2023-01-19T10:54:31.817Z,342.90
2023-01-19T10:55:32.499Z,357.10
2023-01-19T10:56:33.183Z,343.40
2023-01-19T10:57:34.122Z,346.90
2023-01-19T10:58:34.889Z,348.50
2023-01-19T10:59:35.800Z,351.40
2023-01-19T11:00:36.540Z,358.30
2023-01-19T11:01:37.936Z,356.70
2023-01-19T11:02:37.873Z,340.40
2023-01-19T11:03:38.630Z,345.70
2023-01-19T11:04:39.348Z,339.90
2023-01-19T11:05:40.073Z,339.20
2023-01-19T11:06:40.784Z,345.60
2023-01-19T11:07:41.687Z,365.70
2023-01-19T11:08:43.176Z,362.00
2023-01-19T11:09:42.884Z,367.70
2023-01-19T11:10:43.589Z,351.10
2023-01-19T11:11:44.314Z,363.00
2023-01-19T11:12:45.043Z,389.50
2023-01-19T11:13:45.750Z,403.50
2023-01-19T11:14:46.563Z,421.50
2023-01-19T11:15:47.365Z,407.10
2023-01-19T11:16:48.139Z,405.10
2023-01-19T11:17:48.843Z,392.80
2023-01-19T11:18:49.630Z,387.00
2023-01-19T11:19:50.291Z,385.60
2023-01-19T11:20:51.113Z,360.30
2023-01-19T11:21:51.839Z,359.30
2023-01-19T11:22:53.132Z,340.80
2023-01-19T11:23:53.571Z,343.00
2023-01-19T11:24:54.287Z,328.30
2023-01-19T11:25:54.996Z,349.10
2023-01-19T11:26:55.742Z,340.80
2023-01-19T11:27:56.593Z,314.60
2023-01-19T11:28:57.234Z,312.00
2023-01-19T11:29:57.943Z,286.40
2023-01-19T11:30:58.783Z,302.40
2023-01-19T11:31:59.515Z,277.10
2023-01-19T11:33:00.973Z,297.90
2023-01-19T11:34:01.835Z,309.20
2023-01-19T11:35:01.602Z,304.70
2023-01-19T11:36:02.254Z,307.20
2023-01-19T11:37:02.981Z,300.60
2023-01-19T11:38:04.120Z,313.90
2023-01-19T11:39:04.327Z,322.80
2023-01-19T11:40:05.043Z,308.00
2023-01-19T11:41:05.737Z,302.00
2023-01-19T11:42:06.563Z,304.00
2023-01-19T11:43:07.263Z,329.40
2023-01-19T11:44:07.962Z,311.80
2023-01-19T11:45:08.718Z,308.20
2023-01-19T11:46:09.522Z,322.30
2023-01-19T11:47:10.196Z,317.70
2023-01-19T11:48:11.131Z,316.80
2023-01-19T11:49:11.841Z,307.40
2023-01-19T11:50:12.550Z,334.30
2023-01-19T11:51:13.302Z,320.90
2023-01-19T11:52:14.107Z,344.80
2023-01-19T11:53:15.203Z,305.40
2023-01-19T11:54:15.643Z,320.80
2023-01-19T11:55:16.423Z,334.80
2023-01-19T11:56:17.139Z,319.30
2023-01-19T11:57:17.979Z,285.90
2023-01-19T11:58:18.687Z,311.10
2023-01-19T11:59:19.546Z,303.00
2023-01-19T12:00:20.403Z,297.90
2023-01-19T12:01:21.277Z,296.10
2023-01-19T12:02:22.054Z,303.40
2023-01-19T12:03:23.182Z,280.50
2023-01-19T12:04:23.357Z,308.40
2023-01-19T12:05:24.049Z,320.40
2023-01-19T12:06:24.819Z,288.50
2023-01-19T12:07:25.503Z,287.30
2023-01-19T12:08:26.642Z,281.40
2023-01-19T12:09:26.839Z,301.80
2023-01-19T12:10:27.602Z,320.30
2023-01-19T12:11:28.307Z,284.60
2023-01-19T12:12:29.134Z,296.20
2023-01-19T12:13:29.831Z,273.90
2023-01-19T12:14:30.557Z,266.80
2023-01-19T12:15:31.249Z,297.80
2023-01-19T12:16:32.095Z,284.30
2023-01-19T12:17:32.778Z,287.20
2023-01-19T12:18:33.443Z,290.90
2023-01-19T12:19:34.151Z,291.20
2023-01-19T12:20:34.858Z,292.70
2023-01-19T12:21:35.716Z,278.70
2023-01-19T12:22:36.373Z,299.20
2023-01-19T12:23:37.133Z,277.60
2023-01-19T12:24:37.871Z,284.70
2023-01-19T12:25:38.575Z,281.10
2023-01-19T12:26:39.289Z,294.00
2023-01-19T12:27:46.870Z,289.90
2023-01-19T12:28:41.148Z,296.70
2023-01-19T12:29:41.695Z,264.00
2023-01-19T12:30:42.859Z,284.00
2023-01-19T12:31:42.836Z,294.10
2023-01-19T12:32:43.193Z,300.80
2023-01-19T12:33:43.986Z,314.00
2023-01-19T12:34:44.728Z,291.80
2023-01-19T12:35:45.401Z,290.80
2023-01-19T12:36:46.196Z,287.40
2023-01-19T12:37:46.889Z,309.20
2023-01-19T12:38:47.645Z,282.50
2023-01-19T12:39:48.341Z,321.90
2023-01-19T12:40:49.045Z,349.00
2023-01-19T12:41:49.760Z,334.10
2023-01-19T12:42:50.457Z,330.90
2023-01-19T12:43:51.171Z,339.60
2023-01-19T12:44:51.887Z,344.60
2023-01-19T12:45:52.631Z,338.50
2023-01-19T12:46:53.323Z,347.20